KSTC/STC METAR and TAF weather

Enter ICAO airport designator
Station Type Date Time Source
KSTC METAR 2023/01/30 10:53 UTC NOAA

KSTC 301053Z AUTO 25003KT 10SM CLR M25/M28 A3039 RMK AO2 SLP332 T12501278 $


Station Type Date Time Source
KSTC Decoded METAR 2023/01/30 10:53 UTC NOAA

ST. CLOUD REGIONAL AIRPORT, MN, United States (KSTC) 45-33N 094-03W
Jan 30, 2023 - 05:53 AM EST / 2023.01.30 1053 UTC
Wind: from the WSW (250 degrees) at 3 MPH (3 KT):0
Visibility: 10 mile(s):0
Sky conditions: clear
Temperature: -13.0 F (-25.0 C)
Dew Point: -18.0 F (-27.8 C)
Relative Humidity: 77%
Pressure (altimeter): 30.39 in. Hg (1029 hPa)
ob: KSTC 301053Z AUTO 25003KT 10SM CLR M25/M28 A3039 RMK AO2 SLP332 T12501278
cycle: 11

Station Type Date Time Source
KSTC TAF 2023/01/30 12:24 UTC NOAA

TAF KSTC 301123Z 3012/3112 26006KT P6SM SKC
FM310000 20003KT P6SM FEW250

Example: see airport list